Time,TemperatureF,DewpointF,PressureIn,WindDirection,WindDirectionDegrees,WindSpeedMPH,WindSpeedGustMPH,Humidity,HourlyPrecipIn,Conditions,Clouds,dailyrainin,SoftwareType,DateUTC
2013-03-06 00:01:00,51.0,23.0,-100.00,WSW,238,15.0,23.0,33,0.00,,,0.00,,2013-03-06 08:01:00,
2013-03-06 00:11:00,51.0,23.0,-100.00,WSW,238,15.0,23.0,33,0.00,,,0.00,,2013-03-06 08:11:00,
2013-03-06 00:42:00,48.0,24.0,-100.00,SW,222,9.0,22.0,39,0.00,,,0.00,,2013-03-06 08:42:00,
2013-03-06 00:52:00,48.0,24.0,-100.00,SW,222,9.0,22.0,39,0.00,,,0.00,,2013-03-06 08:52:00,
2013-03-06 01:01:00,48.0,24.0,-100.00,SW,222,9.0,22.0,39,0.00,,,0.00,,2013-03-06 09:01:00,
2013-03-06 01:12:00,48.0,24.0,-100.00,SW,222,9.0,22.0,39,0.00,,,0.00,,2013-03-06 09:12:00,
2013-03-06 01:32:00,48.0,28.0,-100.00,SW,232,10.0,17.0,45,0.00,,,0.00,,2013-03-06 09:32:00,
2013-03-06 01:42:00,48.0,28.0,-100.00,SW,232,10.0,17.0,45,0.00,,,0.00,,2013-03-06 09:42:00,
2013-03-06 01:52:00,48.0,28.0,-100.00,SW,232,10.0,17.0,45,0.00,,,0.00,,2013-03-06 09:52:00,
2013-03-06 02:01:00,48.0,28.0,-100.00,SW,232,10.0,17.0,45,0.00,,,0.00,,2013-03-06 10:01:00,
2013-03-06 02:11:00,48.0,28.0,-100.00,SW,232,10.0,17.0,45,0.00,,,0.00,,2013-03-06 10:11:00,
2013-03-06 02:42:00,47.0,31.0,-100.00,SW,231,10.0,16.0,54,0.00,,,-99.99,,2013-03-06 10:42:00,
2013-03-06 02:52:00,47.0,31.0,-100.00,SW,231,10.0,16.0,54,0.00,,,-99.99,,2013-03-06 10:52:00,
2013-03-06 03:02:00,47.0,31.0,-100.00,SW,231,10.0,16.0,54,0.00,,,-99.99,,2013-03-06 11:02:00,
2013-03-06 03:11:00,47.0,31.0,-100.00,SW,231,10.0,16.0,54,0.00,,,-99.99,,2013-03-06 11:11:00,
2013-03-06 03:32:00,46.0,33.0,-100.00,WNW,293,6.0,21.0,60,0.00,,,0.00,,2013-03-06 11:32:00,
2013-03-06 03:42:00,46.0,33.0,-100.00,WNW,293,6.0,21.0,60,0.00,,,0.00,,2013-03-06 11:42:00,
2013-03-06 03:52:00,46.0,33.0,-100.00,WNW,293,6.0,21.0,60,0.00,,,0.00,,2013-03-06 11:52:00,
2013-03-06 04:01:00,46.0,33.0,-100.00,WNW,293,6.0,21.0,60,0.00,,,0.00,,2013-03-06 12:01:00,
2013-03-06 04:11:00,46.0,33.0,-100.00,WNW,293,6.0,21.0,60,0.00,,,0.00,,2013-03-06 12:11:00,
2013-03-06 04:33:00,47.0,33.0,-100.00,West,262,7.0,18.0,57,0.00,,,0.00,,2013-03-06 12:33:00,
2013-03-06 04:43:00,47.0,33.0,-100.00,West,262,7.0,18.0,57,0.00,,,0.00,,2013-03-06 12:43:00,
2013-03-06 04:52:00,47.0,33.0,-100.00,West,262,7.0,18.0,57,0.00,,,0.00,,2013-03-06 12:52:00,
2013-03-06 05:01:00,47.0,33.0,-100.00,West,262,7.0,18.0,57,0.00,,,0.00,,2013-03-06 13:01:00,
2013-03-06 05:11:00,47.0,33.0,-100.00,West,262,7.0,18.0,57,0.00,,,0.00,,2013-03-06 13:11:00,
2013-03-06 05:42:00,46.0,30.0,-100.00,North,2,4.0,21.0,53,0.00,,,0.00,,2013-03-06 13:42:00,
2013-03-06 05:52:00,46.0,30.0,-100.00,North,2,4.0,21.0,53,0.00,,,0.00,,2013-03-06 13:52:00,
2013-03-06 06:01:00,46.0,30.0,-100.00,North,2,4.0,21.0,53,0.00,,,0.00,,2013-03-06 14:01:00,
2013-03-06 06:11:00,46.0,30.0,-100.00,North,2,4.0,21.0,53,0.00,,,0.00,,2013-03-06 14:11:00,
2013-03-06 06:32:00,45.0,29.0,-100.00,SSW,196,9.0,20.0,54,0.00,,,0.00,,2013-03-06 14:32:00,
2013-03-06 06:42:00,45.0,29.0,-100.00,SSW,196,9.0,20.0,54,0.00,,,0.00,,2013-03-06 14:42:00,
2013-03-06 06:52:00,45.0,29.0,-100.00,SSW,196,9.0,20.0,54,0.00,,,0.00,,2013-03-06 14:52:00,
2013-03-06 07:01:00,45.0,29.0,-100.00,SSW,196,9.0,20.0,54,0.00,,,0.00,,2013-03-06 15:01:00,
2013-03-06 07:11:00,45.0,29.0,-100.00,SSW,196,9.0,20.0,54,0.00,,,0.00,,2013-03-06 15:11:00,
2013-03-06 07:42:00,45.0,33.0,-100.00,SSW,200,14.0,27.0,63,0.00,,,0.00,,2013-03-06 15:42:00,
2013-03-06 07:52:00,45.0,33.0,-100.00,SSW,200,14.0,27.0,63,0.00,,,0.00,,2013-03-06 15:52:00,
2013-03-06 08:01:00,45.0,33.0,-100.00,SSW,200,14.0,27.0,63,0.00,,,0.00,,2013-03-06 16:01:00,
2013-03-06 08:11:00,45.0,33.0,-100.00,SSW,200,14.0,27.0,63,0.00,,,0.00,,2013-03-06 16:11:00,
2013-03-06 08:42:00,47.0,37.0,-100.00,SSE,151,5.0,21.0,67,0.00,,,0.00,,2013-03-06 16:42:00,
2013-03-06 08:52:00,47.0,37.0,-100.00,SSE,151,5.0,21.0,67,0.00,,,0.00,,2013-03-06 16:52:00,
2013-03-06 09:01:00,47.0,37.0,-100.00,SSE,151,5.0,21.0,67,0.00,,,0.00,,2013-03-06 17:01:00,
2013-03-06 09:11:00,47.0,37.0,-100.00,SSE,151,5.0,21.0,67,0.00,,,0.00,,2013-03-06 17:11:00,
2013-03-06 09:32:00,47.0,38.0,-100.00,East,94,4.0,10.0,72,0.00,,,0.00,,2013-03-06 17:32:00,
2013-03-06 09:42:00,47.0,38.0,-100.00,East,94,4.0,10.0,72,0.00,,,0.00,,2013-03-06 17:42:00,
2013-03-06 09:52:00,47.0,38.0,-100.00,East,94,4.0,10.0,72,0.00,,,0.00,,2013-03-06 17:52:00,
2013-03-06 10:01:00,47.0,38.0,-100.00,East,94,4.0,10.0,72,0.00,,,0.00,,2013-03-06 18:01:00,
2013-03-06 10:32:00,53.0,40.0,-100.00,East,96,5.0,15.0,62,0.00,,,0.00,,2013-03-06 18:32:00,
2013-03-06 10:42:00,53.0,40.0,-100.00,East,96,5.0,15.0,62,0.00,,,0.00,,2013-03-06 18:42:00,
2013-03-06 10:52:00,53.0,40.0,-100.00,East,96,5.0,15.0,62,0.00,,,0.00,,2013-03-06 18:52:00,
2013-03-06 11:02:00,53.0,40.0,-100.00,East,96,5.0,15.0,62,0.00,,,0.00,,2013-03-06 19:02:00,
2013-03-06 11:11:00,53.0,40.0,-100.00,East,96,5.0,15.0,62,0.00,,,0.00,,2013-03-06 19:11:00,
2013-03-06 11:43:00,51.0,35.0,-100.00,North,358,6.0,19.0,54,0.00,,,0.00,,2013-03-06 19:43:00,
2013-03-06 11:53:00,51.0,35.0,-100.00,North,358,6.0,19.0,54,0.00,,,0.00,,2013-03-06 19:53:00,
2013-03-06 12:01:00,51.0,35.0,-100.00,North,358,6.0,19.0,54,0.00,,,0.00,,2013-03-06 20:01:00,
2013-03-06 12:11:00,51.0,35.0,-100.00,North,358,6.0,19.0,54,0.00,,,0.00,,2013-03-06 20:11:00,
2013-03-06 12:33:00,52.0,35.0,-100.00,WSW,248,9.0,27.0,52,0.00,,,0.00,,2013-03-06 20:33:00,
2013-03-06 12:42:00,52.0,35.0,-100.00,WSW,248,9.0,27.0,52,0.00,,,0.00,,2013-03-06 20:42:00,
2013-03-06 12:52:00,52.0,35.0,-100.00,WSW,248,9.0,27.0,52,0.00,,,0.00,,2013-03-06 20:52:00,
2013-03-06 13:02:00,52.0,35.0,-100.00,WSW,248,9.0,27.0,52,0.00,,,0.00,,2013-03-06 21:02:00,
2013-03-06 13:11:00,52.0,35.0,-100.00,WSW,248,9.0,27.0,52,0.00,,,0.00,,2013-03-06 21:11:00,
2013-03-06 13:42:00,52.0,35.0,-100.00,West,259,6.0,28.0,53,0.00,,,0.00,,2013-03-06 21:42:00,
2013-03-06 13:52:00,52.0,35.0,-100.00,West,259,6.0,28.0,53,0.00,,,0.00,,2013-03-06 21:52:00,
2013-03-06 14:01:00,52.0,35.0,-100.00,West,259,6.0,28.0,53,0.00,,,0.00,,2013-03-06 22:01:00,
2013-03-06 14:11:00,52.0,35.0,-100.00,West,259,6.0,28.0,53,0.00,,,0.00,,2013-03-06 22:11:00,
2013-03-06 14:32:00,48.0,38.0,-100.00,SSW,205,6.0,26.0,68,0.00,,,0.00,,2013-03-06 22:32:00,
2013-03-06 14:42:00,48.0,38.0,-100.00,SSW,205,6.0,26.0,68,0.00,,,0.00,,2013-03-06 22:42:00,
2013-03-06 14:52:00,48.0,38.0,-100.00,SSW,205,6.0,26.0,68,0.00,,,0.00,,2013-03-06 22:52:00,
2013-03-06 15:01:00,48.0,38.0,-100.00,SSW,205,6.0,26.0,68,0.00,,,0.00,,2013-03-06 23:01:00,
2013-03-06 15:11:00,48.0,38.0,-100.00,SSW,205,6.0,26.0,68,0.00,,,0.00,,2013-03-06 23:11:00,
2013-03-06 15:32:00,50.0,36.0,-100.00,South,172,7.0,17.0,59,0.00,,,0.00,,2013-03-06 23:32:00,
2013-03-06 15:42:00,50.0,36.0,-100.00,South,172,7.0,17.0,59,0.00,,,0.00,,2013-03-06 23:42:00,
2013-03-06 15:52:00,50.0,36.0,-100.00,South,172,7.0,17.0,59,0.00,,,0.00,,2013-03-06 23:52:00,
2013-03-06 16:01:00,50.0,36.0,-100.00,South,172,7.0,17.0,59,0.00,,,0.00,,2013-03-07 00:01:00,
2013-03-06 16:11:00,50.0,36.0,-100.00,South,172,7.0,17.0,59,0.00,,,0.00,,2013-03-07 00:11:00,
2013-03-06 16:32:00,52.0,35.0,-100.00,SE,145,4.0,14.0,53,0.00,,,0.00,,2013-03-07 00:32:00,
2013-03-06 16:42:00,52.0,35.0,-100.00,SE,145,4.0,14.0,53,0.00,,,0.00,,2013-03-07 00:42:00,
2013-03-06 16:52:00,52.0,35.0,-100.00,SE,145,4.0,14.0,53,0.00,,,0.00,,2013-03-07 00:52:00,
2013-03-06 17:01:00,52.0,35.0,-100.00,SE,145,4.0,14.0,53,0.00,,,0.00,,2013-03-07 01:01:00,
2013-03-06 17:11:00,52.0,35.0,-100.00,SE,145,4.0,14.0,53,0.00,,,0.00,,2013-03-07 01:11:00,
2013-03-06 17:42:00,50.0,34.0,-100.00,West,273,10.0,24.0,53,0.00,,,0.00,,2013-03-07 01:42:00,
2013-03-06 17:52:00,50.0,34.0,-100.00,West,273,10.0,24.0,53,0.00,,,0.00,,2013-03-07 01:52:00,
2013-03-06 18:01:00,50.0,34.0,-100.00,West,273,10.0,24.0,53,0.00,,,0.00,,2013-03-07 02:01:00,
2013-03-06 18:11:00,50.0,34.0,-100.00,West,273,10.0,24.0,53,0.00,,,0.00,,2013-03-07 02:11:00,
2013-03-06 18:32:00,48.0,34.0,-100.00,WNW,292,6.0,18.0,58,0.00,,,0.00,,2013-03-07 02:32:00,
2013-03-06 18:42:00,48.0,34.0,-100.00,WNW,292,6.0,18.0,58,0.00,,,0.00,,2013-03-07 02:42:00,
2013-03-06 18:52:00,48.0,34.0,-100.00,WNW,292,6.0,18.0,58,0.00,,,0.00,,2013-03-07 02:52:00,
2013-03-06 19:01:00,48.0,34.0,-100.00,WNW,292,6.0,18.0,58,0.00,,,0.00,,2013-03-07 03:01:00,
2013-03-06 19:11:00,48.0,34.0,-100.00,WNW,292,6.0,18.0,58,0.00,,,0.00,,2013-03-07 03:11:00,
2013-03-06 19:32:00,47.0,34.0,-100.00,SSW,194,7.0,14.0,61,0.00,,,0.00,,2013-03-07 03:32:00,
2013-03-06 19:42:00,47.0,34.0,-100.00,SSW,194,7.0,14.0,61,0.00,,,0.00,,2013-03-07 03:42:00,
2013-03-06 19:52:00,47.0,34.0,-100.00,SSW,194,7.0,14.0,61,0.00,,,0.00,,2013-03-07 03:52:00,
2013-03-06 20:01:00,47.0,34.0,-100.00,SSW,194,7.0,14.0,61,0.00,,,0.00,,2013-03-07 04:01:00,
2013-03-06 20:11:00,47.0,34.0,-100.00,SSW,194,7.0,14.0,61,0.00,,,0.00,,2013-03-07 04:11:00,
2013-03-06 20:32:00,45.0,33.0,-100.00,SSW,207,7.0,14.0,63,0.00,,,0.00,,2013-03-07 04:32:00,
2013-03-06 20:42:00,45.0,33.0,-100.00,SSW,207,7.0,14.0,63,0.00,,,0.00,,2013-03-07 04:42:00,
2013-03-06 20:52:00,45.0,33.0,-100.00,SSW,207,7.0,14.0,63,0.00,,,0.00,,2013-03-07 04:52:00,
2013-03-06 21:01:00,45.0,33.0,-100.00,SSW,207,7.0,14.0,63,0.00,,,0.00,,2013-03-07 05:01:00,
2013-03-06 21:12:00,45.0,33.0,-100.00,SSW,207,7.0,14.0,63,0.00,,,0.00,,2013-03-07 05:12:00,
2013-03-06 21:32:00,45.0,33.0,-100.00,SSW,209,9.0,14.0,62,0.00,,,0.00,,2013-03-07 05:32:00,
2013-03-06 21:42:00,45.0,33.0,-100.00,SSW,209,9.0,14.0,62,0.00,,,0.00,,2013-03-07 05:42:00,
2013-03-06 21:52:00,45.0,33.0,-100.00,SSW,209,9.0,14.0,62,0.00,,,0.00,,2013-03-07 05:52:00,
2013-03-06 22:01:00,45.0,33.0,-100.00,SSW,209,9.0,14.0,62,0.00,,,0.00,,2013-03-07 06:01:00,
2013-03-06 22:11:00,45.0,33.0,-100.00,SSW,209,9.0,14.0,62,0.00,,,0.00,,2013-03-07 06:11:00,
2013-03-06 22:32:00,45.0,32.0,-100.00,SSW,207,10.0,18.0,60,0.00,,,0.00,,2013-03-07 06:32:00,
2013-03-06 22:42:00,45.0,32.0,-100.00,SSW,207,10.0,18.0,60,0.00,,,0.00,,2013-03-07 06:42:00,
2013-03-06 22:52:00,45.0,32.0,-100.00,SSW,207,10.0,18.0,60,0.00,,,0.00,,2013-03-07 06:52:00,
2013-03-06 23:01:00,45.0,32.0,-100.00,SSW,207,10.0,18.0,60,0.00,,,0.00,,2013-03-07 07:01:00,
2013-03-06 23:11:00,45.0,32.0,-100.00,SSW,207,10.0,18.0,60,0.00,,,0.00,,2013-03-07 07:11:00,
2013-03-06 23:32:00,44.0,33.0,-100.00,SSW,199,6.0,18.0,66,0.00,,,0.00,,2013-03-07 07:32:00,
2013-03-06 23:43:00,44.0,33.0,-100.00,SSW,199,6.0,18.0,66,0.00,,,0.00,,2013-03-07 07:43:00,
2013-03-06 23:52:00,44.0,33.0,-100.00,SSW,199,6.0,18.0,66,0.00,,,0.00,,2013-03-07 07:52:00,